sensor_id;sensor_type;location;lat;lon;timestamp;P1;durP1;ratioP1;P2;durP2;ratioP2
31746;SDS011;18319;48.974;8.462;2022-08-01T00:02:14;3.83;;;1.55;;
31746;SDS011;18319;48.974;8.462;2022-08-01T00:04:43;1.25;;;1.20;;
31746;SDS011;18319;48.974;8.462;2022-08-01T00:07:10;1.55;;;1.40;;
31746;SDS011;18319;48.974;8.462;2022-08-01T00:09:37;2.05;;;1.50;;
31746;SDS011;18319;48.974;8.462;2022-08-01T00:12:03;2.58;;;1.65;;
31746;SDS011;18319;48.974;8.462;2022-08-01T00:14:31;1.92;;;1.75;;
31746;SDS011;18319;48.974;8.462;2022-08-01T00:16:57;2.05;;;1.95;;
31746;SDS011;18319;48.974;8.462;2022-08-01T00:19:24;1.67;;;1.58;;
31746;SDS011;18319;48.974;8.462;2022-08-01T00:21:52;1.83;;;1.73;;
31746;SDS011;18319;48.974;8.462;2022-08-01T00:24:19;1.83;;;1.73;;
31746;SDS011;18319;48.974;8.462;2022-08-01T00:26:46;1.80;;;1.70;;
31746;SDS011;18319;48.974;8.462;2022-08-01T00:29:13;2.60;;;1.90;;
31746;SDS011;18319;48.974;8.462;2022-08-01T00:31:40;1.85;;;1.75;;
31746;SDS011;18319;48.974;8.462;2022-08-01T00:34:07;1.45;;;1.45;;
31746;SDS011;18319;48.974;8.462;2022-08-01T00:36:36;2.25;;;1.77;;
31746;SDS011;18319;48.974;8.462;2022-08-01T00:39:04;2.08;;;1.65;;
31746;SDS011;18319;48.974;8.462;2022-08-01T00:41:31;2.83;;;1.67;;
31746;SDS011;18319;48.974;8.462;2022-08-01T00:43:58;2.10;;;2.00;;
31746;SDS011;18319;48.974;8.462;2022-08-01T00:46:27;2.03;;;1.80;;
31746;SDS011;18319;48.974;8.462;2022-08-01T00:48:54;2.03;;;1.83;;
31746;SDS011;18319;48.974;8.462;2022-08-01T00:51:22;1.83;;;1.73;;
31746;SDS011;18319;48.974;8.462;2022-08-01T00:53:49;2.38;;;2.28;;
31746;SDS011;18319;48.974;8.462;2022-08-01T00:56:18;1.90;;;1.70;;
31746;SDS011;18319;48.974;8.462;2022-08-01T00:58:45;1.90;;;1.80;;
31746;SDS011;18319;48.974;8.462;2022-08-01T01:01:12;1.92;;;1.83;;
31746;SDS011;18319;48.974;8.462;2022-08-01T01:03:38;2.03;;;1.63;;
31746;SDS011;18319;48.974;8.462;2022-08-01T01:06:10;1.55;;;1.45;;
31746;SDS011;18319;48.974;8.462;2022-08-01T01:08:46;3.78;;;1.75;;
31746;SDS011;18319;48.974;8.462;2022-08-01T01:11:25;3.10;;;2.10;;
31746;SDS011;18319;48.974;8.462;2022-08-01T01:13:57;2.00;;;1.90;;
31746;SDS011;18319;48.974;8.462;2022-08-01T01:16:29;3.75;;;2.00;;
31746;SDS011;18319;48.974;8.462;2022-08-01T01:19:00;2.10;;;1.85;;
31746;SDS011;18319;48.974;8.462;2022-08-01T01:21:39;1.80;;;1.70;;
31746;SDS011;18319;48.974;8.462;2022-08-01T01:24:28;2.55;;;2.20;;
31746;SDS011;18319;48.974;8.462;2022-08-01T01:27:14;2.70;;;1.90;;
31746;SDS011;18319;48.974;8.462;2022-08-01T01:29:51;1.88;;;1.48;;
31746;SDS011;18319;48.974;8.462;2022-08-01T01:32:21;2.28;;;1.52;;
31746;SDS011;18319;48.974;8.462;2022-08-01T01:34:53;2.28;;;2.15;;
31746;SDS011;18319;48.974;8.462;2022-08-01T01:37:21;1.92;;;1.83;;
31746;SDS011;18319;48.974;8.462;2022-08-01T01:39:54;2.85;;;1.50;;
31746;SDS011;18319;48.974;8.462;2022-08-01T01:42:22;1.60;;;1.50;;
31746;SDS011;18319;48.974;8.462;2022-08-01T01:44:52;1.88;;;1.77;;
31746;SDS011;18319;48.974;8.462;2022-08-01T01:47:21;2.67;;;1.80;;
31746;SDS011;18319;48.974;8.462;2022-08-01T01:49:50;2.83;;;1.50;;
31746;SDS011;18319;48.974;8.462;2022-08-01T01:52:20;1.92;;;1.83;;
31746;SDS011;18319;48.974;8.462;2022-08-01T01:54:50;1.83;;;1.63;;
31746;SDS011;18319;48.974;8.462;2022-08-01T01:57:18;2.10;;;1.90;;
31746;SDS011;18319;48.974;8.462;2022-08-01T01:59:47;1.83;;;1.73;;
31746;SDS011;18319;48.974;8.462;2022-08-01T02:02:18;1.92;;;1.83;;
31746;SDS011;18319;48.974;8.462;2022-08-01T02:04:46;1.60;;;1.50;;
31746;SDS011;18319;48.974;8.462;2022-08-01T02:07:14;2.65;;;2.45;;
31746;SDS011;18319;48.974;8.462;2022-08-01T02:09:44;2.03;;;1.92;;
31746;SDS011;18319;48.974;8.462;2022-08-01T02:12:13;2.10;;;1.88;;
31746;SDS011;18319;48.974;8.462;2022-08-01T02:14:42;2.78;;;1.73;;
31746;SDS011;18319;48.974;8.462;2022-08-01T02:17:10;2.25;;;2.15;;
31746;SDS011;18319;48.974;8.462;2022-08-01T02:19:42;2.35;;;2.15;;
31746;SDS011;18319;48.974;8.462;2022-08-01T02:22:10;2.78;;;1.73;;
31746;SDS011;18319;48.974;8.462;2022-08-01T02:24:40;1.90;;;1.80;;
31746;SDS011;18319;48.974;8.462;2022-08-01T02:27:11;1.80;;;1.70;;
31746;SDS011;18319;48.974;8.462;2022-08-01T02:29:42;2.30;;;2.20;;
31746;SDS011;18319;48.974;8.462;2022-08-01T02:32:14;2.05;;;1.95;;
31746;SDS011;18319;48.974;8.462;2022-08-01T02:34:47;1.70;;;1.60;;
31746;SDS011;18319;48.974;8.462;2022-08-01T02:37:17;1.90;;;1.80;;
31746;SDS011;18319;48.974;8.462;2022-08-01T02:39:45;1.90;;;1.80;;
31746;SDS011;18319;48.974;8.462;2022-08-01T02:42:13;2.22;;;1.67;;
31746;SDS011;18319;48.974;8.462;2022-08-01T02:44:42;2.55;;;1.98;;
31746;SDS011;18319;48.974;8.462;2022-08-01T02:47:10;1.90;;;1.75;;
31746;SDS011;18319;48.974;8.462;2022-08-01T02:49:39;1.98;;;1.88;;
31746;SDS011;18319;48.974;8.462;2022-08-01T02:52:11;1.60;;;1.50;;
31746;SDS011;18319;48.974;8.462;2022-08-01T02:54:40;1.90;;;1.80;;
31746;SDS011;18319;48.974;8.462;2022-08-01T02:57:10;2.08;;;1.75;;
31746;SDS011;18319;48.974;8.462;2022-08-01T02:59:39;1.80;;;1.70;;
31746;SDS011;18319;48.974;8.462;2022-08-01T03:02:07;2.13;;;1.98;;
31746;SDS011;18319;48.974;8.462;2022-08-01T03:04:36;1.67;;;1.58;;
31746;SDS011;18319;48.974;8.462;2022-08-01T03:07:05;1.85;;;1.70;;
31746;SDS011;18319;48.974;8.462;2022-08-01T03:09:37;3.30;;;1.15;;
31746;SDS011;18319;48.974;8.462;2022-08-01T03:12:08;2.05;;;1.55;;
31746;SDS011;18319;48.974;8.462;2022-08-01T03:14:39;2.47;;;2.28;;
31746;SDS011;18319;48.974;8.462;2022-08-01T03:17:08;1.98;;;1.80;;
31746;SDS011;18319;48.974;8.462;2022-08-01T03:19:36;2.10;;;1.92;;
31746;SDS011;18319;48.974;8.462;2022-08-01T03:22:05;1.73;;;1.63;;
31746;SDS011;18319;48.974;8.462;2022-08-01T03:24:36;1.55;;;1.45;;
31746;SDS011;18319;48.974;8.462;2022-08-01T03:27:05;2.35;;;2.08;;
31746;SDS011;18319;48.974;8.462;2022-08-01T03:29:33;2.80;;;1.90;;
31746;SDS011;18319;48.974;8.462;2022-08-01T03:32:02;1.77;;;1.67;;
31746;SDS011;18319;48.974;8.462;2022-08-01T03:34:30;1.83;;;1.73;;
31746;SDS011;18319;48.974;8.462;2022-08-01T03:36:59;2.25;;;2.15;;
31746;SDS011;18319;48.974;8.462;2022-08-01T03:39:34;2.55;;;1.60;;
31746;SDS011;18319;48.974;8.462;2022-08-01T03:42:09;1.70;;;1.60;;
31746;SDS011;18319;48.974;8.462;2022-08-01T03:44:38;2.70;;;2.13;;
31746;SDS011;18319;48.974;8.462;2022-08-01T03:47:07;2.03;;;1.92;;
31746;SDS011;18319;48.974;8.462;2022-08-01T03:49:37;1.95;;;1.85;;
31746;SDS011;18319;48.974;8.462;2022-08-01T03:52:09;2.85;;;1.67;;
31746;SDS011;18319;48.974;8.462;2022-08-01T03:54:40;2.97;;;1.73;;
31746;SDS011;18319;48.974;8.462;2022-08-01T03:57:10;1.67;;;1.58;;
31746;SDS011;18319;48.974;8.462;2022-08-01T03:59:37;1.98;;;1.88;;
31746;SDS011;18319;48.974;8.462;2022-08-01T04:02:04;1.80;;;1.70;;
31746;SDS011;18319;48.974;8.462;2022-08-01T04:04:32;2.10;;;1.83;;
31746;SDS011;18319;48.974;8.462;2022-08-01T04:06:59;3.03;;;2.78;;
31746;SDS011;18319;48.974;8.462;2022-08-01T04:09:29;2.25;;;1.65;;
31746;SDS011;18319;48.974;8.462;2022-08-01T04:11:57;3.50;;;1.88;;
31746;SDS011;18319;48.974;8.462;2022-08-01T04:14:24;1.80;;;1.70;;
31746;SDS011;18319;48.974;8.462;2022-08-01T04:16:52;3.10;;;1.98;;
31746;SDS011;18319;48.974;8.462;2022-08-01T04:19:19;2.05;;;1.85;;
31746;SDS011;18319;48.974;8.462;2022-08-01T04:21:46;2.45;;;2.25;;
31746;SDS011;18319;48.974;8.462;2022-08-01T04:24:13;2.35;;;1.60;;
31746;SDS011;18319;48.974;8.462;2022-08-01T04:26:43;1.50;;;1.40;;
31746;SDS011;18319;48.974;8.462;2022-08-01T04:29:13;3.45;;;2.08;;
31746;SDS011;18319;48.974;8.462;2022-08-01T04:31:44;2.83;;;1.60;;
31746;SDS011;18319;48.974;8.462;2022-08-01T04:34:14;3.97;;;1.90;;
31746;SDS011;18319;48.974;8.462;2022-08-01T04:36:43;3.22;;;1.98;;
31746;SDS011;18319;48.974;8.462;2022-08-01T04:39:13;1.88;;;1.77;;
31746;SDS011;18319;48.974;8.462;2022-08-01T04:41:42;2.22;;;1.88;;
31746;SDS011;18319;48.974;8.462;2022-08-01T04:44:11;2.88;;;1.90;;
31746;SDS011;18319;48.974;8.462;2022-08-01T04:46:41;2.65;;;1.98;;
31746;SDS011;18319;48.974;8.462;2022-08-01T04:49:10;2.10;;;2.00;;
31746;SDS011;18319;48.974;8.462;2022-08-01T04:51:48;2.35;;;2.20;;
31746;SDS011;18319;48.974;8.462;2022-08-01T04:54:16;2.90;;;1.92;;
31746;SDS011;18319;48.974;8.462;2022-08-01T04:56:43;2.55;;;1.83;;
31746;SDS011;18319;48.974;8.462;2022-08-01T04:59:10;4.47;;;2.92;;
31746;SDS011;18319;48.974;8.462;2022-08-01T05:01:56;2.65;;;2.28;;
31746;SDS011;18319;48.974;8.462;2022-08-01T05:04:23;2.28;;;2.17;;
31746;SDS011;18319;48.974;8.462;2022-08-01T05:06:50;2.63;;;1.70;;
31746;SDS011;18319;48.974;8.462;2022-08-01T05:09:17;5.15;;;2.70;;
31746;SDS011;18319;48.974;8.462;2022-08-01T05:11:44;2.28;;;2.17;;
31746;SDS011;18319;48.974;8.462;2022-08-01T05:14:11;1.95;;;1.80;;
31746;SDS011;18319;48.974;8.462;2022-08-01T05:16:37;2.13;;;2.03;;
31746;SDS011;18319;48.974;8.462;2022-08-01T05:19:05;2.05;;;1.95;;
31746;SDS011;18319;48.974;8.462;2022-08-01T05:21:33;1.92;;;1.83;;
31746;SDS011;18319;48.974;8.462;2022-08-01T05:24:00;1.80;;;1.70;;
31746;SDS011;18319;48.974;8.462;2022-08-01T05:26:27;2.90;;;2.63;;
31746;SDS011;18319;48.974;8.462;2022-08-01T05:28:54;2.25;;;2.15;;
31746;SDS011;18319;48.974;8.462;2022-08-01T05:31:21;2.33;;;2.10;;
31746;SDS011;18319;48.974;8.462;2022-08-01T05:33:49;2.22;;;1.73;;
31746;SDS011;18319;48.974;8.462;2022-08-01T05:36:17;2.15;;;2.05;;
31746;SDS011;18319;48.974;8.462;2022-08-01T05:38:44;2.67;;;1.70;;
31746;SDS011;18319;48.974;8.462;2022-08-01T05:41:11;2.33;;;2.10;;
31746;SDS011;18319;48.974;8.462;2022-08-01T05:43:38;1.92;;;1.83;;
31746;SDS011;18319;48.974;8.462;2022-08-01T05:46:05;2.17;;;2.08;;
31746;SDS011;18319;48.974;8.462;2022-08-01T05:48:32;2.20;;;2.10;;
31746;SDS011;18319;48.974;8.462;2022-08-01T05:50:58;2.75;;;2.33;;
31746;SDS011;18319;48.974;8.462;2022-08-01T05:53:27;2.20;;;2.10;;
31746;SDS011;18319;48.974;8.462;2022-08-01T05:55:54;3.80;;;1.95;;
31746;SDS011;18319;48.974;8.462;2022-08-01T05:58:21;2.15;;;1.95;;
31746;SDS011;18319;48.974;8.462;2022-08-01T06:00:48;2.97;;;2.20;;
31746;SDS011;18319;48.974;8.462;2022-08-01T06:03:15;1.90;;;1.80;;
31746;SDS011;18319;48.974;8.462;2022-08-01T06:05:42;2.08;;;1.92;;
31746;SDS011;18319;48.974;8.462;2022-08-01T06:08:08;2.75;;;2.15;;
31746;SDS011;18319;48.974;8.462;2022-08-01T06:10:37;2.17;;;2.00;;
31746;SDS011;18319;48.974;8.462;2022-08-01T06:13:04;1.98;;;1.88;;
31746;SDS011;18319;48.974;8.462;2022-08-01T06:15:30;3.30;;;2.05;;
31746;SDS011;18319;48.974;8.462;2022-08-01T06:17:57;2.63;;;2.20;;
31746;SDS011;18319;48.974;8.462;2022-08-01T06:20:24;2.03;;;1.92;;
31746;SDS011;18319;48.974;8.462;2022-08-01T06:22:51;1.95;;;1.85;;
31746;SDS011;18319;48.974;8.462;2022-08-01T06:25:18;6.70;;;1.83;;
31746;SDS011;18319;48.974;8.462;2022-08-01T06:27:46;4.82;;;2.25;;
31746;SDS011;18319;48.974;8.462;2022-08-01T06:30:13;31.48;;;4.20;;
31746;SDS011;18319;48.974;8.462;2022-08-01T06:32:40;34.30;;;6.15;;
31746;SDS011;18319;48.974;8.462;2022-08-01T06:35:07;23.38;;;3.67;;
31746;SDS011;18319;48.974;8.462;2022-08-01T06:37:34;10.85;;;3.00;;
31746;SDS011;18319;48.974;8.462;2022-08-01T06:40:02;9.63;;;2.80;;
31746;SDS011;18319;48.974;8.462;2022-08-01T06:42:29;4.03;;;2.17;;
31746;SDS011;18319;48.974;8.462;2022-08-01T06:45:01;6.43;;;2.45;;
31746;SDS011;18319;48.974;8.462;2022-08-01T06:47:28;3.50;;;1.70;;
31746;SDS011;18319;48.974;8.462;2022-08-01T06:49:55;20.50;;;4.40;;
31746;SDS011;18319;48.974;8.462;2022-08-01T06:52:22;8.07;;;3.08;;
31746;SDS011;18319;48.974;8.462;2022-08-01T06:54:49;7.93;;;3.25;;
31746;SDS011;18319;48.974;8.462;2022-08-01T06:57:16;35.60;;;4.97;;
31746;SDS011;18319;48.974;8.462;2022-08-01T06:59:43;97.25;;;11.40;;
31746;SDS011;18319;48.974;8.462;2022-08-01T07:02:11;7.40;;;3.78;;
31746;SDS011;18319;48.974;8.462;2022-08-01T07:04:38;5.82;;;2.30;;
31746;SDS011;18319;48.974;8.462;2022-08-01T07:07:05;3.35;;;1.80;;
31746;SDS011;18319;48.974;8.462;2022-08-01T07:09:32;3.15;;;1.77;;
31746;SDS011;18319;48.974;8.462;2022-08-01T07:11:59;3.22;;;1.90;;
31746;SDS011;18319;48.974;8.462;2022-08-01T07:14:26;8.52;;;3.50;;
31746;SDS011;18319;48.974;8.462;2022-08-01T07:16:53;17.58;;;4.47;;
31746;SDS011;18319;48.974;8.462;2022-08-01T07:19:21;32.08;;;7.95;;
31746;SDS011;18319;48.974;8.462;2022-08-01T07:21:48;13.35;;;3.88;;
31746;SDS011;18319;48.974;8.462;2022-08-01T07:24:14;4.20;;;2.40;;
31746;SDS011;18319;48.974;8.462;2022-08-01T07:26:42;3.17;;;2.13;;
31746;SDS011;18319;48.974;8.462;2022-08-01T07:29:10;36.25;;;3.97;;
31746;SDS011;18319;48.974;8.462;2022-08-01T07:31:36;5.82;;;2.38;;
31746;SDS011;18319;48.974;8.462;2022-08-01T07:34:03;7.95;;;2.35;;
31746;SDS011;18319;48.974;8.462;2022-08-01T07:36:32;18.15;;;4.53;;
31746;SDS011;18319;48.974;8.462;2022-08-01T07:38:59;4.90;;;2.58;;
31746;SDS011;18319;48.974;8.462;2022-08-01T07:41:25;6.10;;;2.63;;
31746;SDS011;18319;48.974;8.462;2022-08-01T07:43:53;2.42;;;2.22;;
31746;SDS011;18319;48.974;8.462;2022-08-01T07:46:19;2.17;;;1.80;;
31746;SDS011;18319;48.974;8.462;2022-08-01T07:48:46;3.08;;;1.92;;
31746;SDS011;18319;48.974;8.462;2022-08-01T07:51:13;1.83;;;1.73;;
31746;SDS011;18319;48.974;8.462;2022-08-01T07:53:41;2.17;;;1.80;;
31746;SDS011;18319;48.974;8.462;2022-08-01T07:56:08;3.38;;;1.42;;
31746;SDS011;18319;48.974;8.462;2022-08-01T07:58:35;2.58;;;1.70;;
31746;SDS011;18319;48.974;8.462;2022-08-01T08:01:02;2.13;;;1.63;;
31746;SDS011;18319;48.974;8.462;2022-08-01T08:03:29;3.28;;;1.20;;
31746;SDS011;18319;48.974;8.462;2022-08-01T08:05:56;1.27;;;1.20;;
31746;SDS011;18319;48.974;8.462;2022-08-01T08:08:22;2.30;;;1.27;;
31746;SDS011;18319;48.974;8.462;2022-08-01T08:10:53;1.80;;;1.70;;
31746;SDS011;18319;48.974;8.462;2022-08-01T08:13:20;1.40;;;1.30;;
31746;SDS011;18319;48.974;8.462;2022-08-01T08:15:47;1.55;;;1.45;;
31746;SDS011;18319;48.974;8.462;2022-08-01T08:18:14;1.20;;;1.10;;
31746;SDS011;18319;48.974;8.462;2022-08-01T08:20:41;1.20;;;1.10;;
31746;SDS011;18319;48.974;8.462;2022-08-01T08:23:07;1.08;;;1.08;;
31746;SDS011;18319;48.974;8.462;2022-08-01T08:25:48;3.05;;;1.25;;
31746;SDS011;18319;48.974;8.462;2022-08-01T08:28:16;1.38;;;1.27;;
31746;SDS011;18319;48.974;8.462;2022-08-01T08:30:43;1.42;;;1.27;;
31746;SDS011;18319;48.974;8.462;2022-08-01T08:33:10;1.17;;;1.08;;
31746;SDS011;18319;48.974;8.462;2022-08-01T08:35:38;1.30;;;1.20;;
31746;SDS011;18319;48.974;8.462;2022-08-01T08:38:05;1.98;;;1.10;;
31746;SDS011;18319;48.974;8.462;2022-08-01T08:40:32;1.38;;;1.27;;
31746;SDS011;18319;48.974;8.462;2022-08-01T08:43:05;2.90;;;1.13;;
31746;SDS011;18319;48.974;8.462;2022-08-01T08:45:33;1.30;;;1.10;;
31746;SDS011;18319;48.974;8.462;2022-08-01T08:48:00;1.40;;;1.40;;
31746;SDS011;18319;48.974;8.462;2022-08-01T08:50:27;1.50;;;1.20;;
31746;SDS011;18319;48.974;8.462;2022-08-01T08:52:55;3.17;;;1.40;;
31746;SDS011;18319;48.974;8.462;2022-08-01T08:55:22;1.58;;;1.10;;
31746;SDS011;18319;48.974;8.462;2022-08-01T08:57:49;2.20;;;1.25;;
31746;SDS011;18319;48.974;8.462;2022-08-01T09:00:17;1.38;;;1.20;;
31746;SDS011;18319;48.974;8.462;2022-08-01T09:02:46;1.60;;;0.98;;
31746;SDS011;18319;48.974;8.462;2022-08-01T09:05:15;1.45;;;1.27;;
31746;SDS011;18319;48.974;8.462;2022-08-01T09:07:43;2.40;;;1.35;;
31746;SDS011;18319;48.974;8.462;2022-08-01T09:10:10;1.75;;;1.10;;
31746;SDS011;18319;48.974;8.462;2022-08-01T09:12:37;1.13;;;1.13;;
31746;SDS011;18319;48.974;8.462;2022-08-01T09:15:04;2.20;;;1.23;;
31746;SDS011;18319;48.974;8.462;2022-08-01T09:17:39;1.58;;;1.48;;
31746;SDS011;18319;48.974;8.462;2022-08-01T09:20:08;3.33;;;1.30;;
31746;SDS011;18319;48.974;8.462;2022-08-01T09:22:54;1.08;;;1.00;;
31746;SDS011;18319;48.974;8.462;2022-08-01T09:25:21;1.42;;;1.33;;
31746;SDS011;18319;48.974;8.462;2022-08-01T09:27:48;3.25;;;1.15;;
31746;SDS011;18319;48.974;8.462;2022-08-01T09:30:29;2.20;;;1.10;;
31746;SDS011;18319;48.974;8.462;2022-08-01T09:33:03;1.17;;;1.02;;
31746;SDS011;18319;48.974;8.462;2022-08-01T09:35:32;1.48;;;1.38;;
31746;SDS011;18319;48.974;8.462;2022-08-01T09:38:11;1.05;;;1.05;;
31746;SDS011;18319;48.974;8.462;2022-08-01T09:40:48;1.80;;;1.45;;
31746;SDS011;18319;48.974;8.462;2022-08-01T09:43:17;2.35;;;1.58;;
31746;SDS011;18319;48.974;8.462;2022-08-01T09:45:44;1.98;;;1.33;;
31746;SDS011;18319;48.974;8.462;2022-08-01T09:48:12;1.77;;;1.25;;
31746;SDS011;18319;48.974;8.462;2022-08-01T09:50:43;1.67;;;1.10;;
31746;SDS011;18319;48.974;8.462;2022-08-01T09:53:11;1.27;;;1.17;;
31746;SDS011;18319;48.974;8.462;2022-08-01T09:55:39;1.77;;;1.00;;
31746;SDS011;18319;48.974;8.462;2022-08-01T09:58:06;1.17;;;1.17;;
31746;SDS011;18319;48.974;8.462;2022-08-01T10:00:35;1.25;;;1.15;;
31746;SDS011;18319;48.974;8.462;2022-08-01T10:03:17;1.45;;;1.45;;
31746;SDS011;18319;48.974;8.462;2022-08-01T10:05:46;2.33;;;1.30;;
31746;SDS011;18319;48.974;8.462;2022-08-01T10:08:13;2.28;;;2.17;;
31746;SDS011;18319;48.974;8.462;2022-08-01T10:10:41;1.60;;;1.50;;
31746;SDS011;18319;48.974;8.462;2022-08-01T10:13:09;2.25;;;1.50;;
31746;SDS011;18319;48.974;8.462;2022-08-01T10:15:37;1.85;;;1.75;;
31746;SDS011;18319;48.974;8.462;2022-08-01T10:18:06;1.80;;;1.70;;
31746;SDS011;18319;48.974;8.462;2022-08-01T10:20:35;2.13;;;1.83;;
31746;SDS011;18319;48.974;8.462;2022-08-01T10:23:03;3.15;;;2.10;;
31746;SDS011;18319;48.974;8.462;2022-08-01T10:25:34;1.98;;;1.88;;
31746;SDS011;18319;48.974;8.462;2022-08-01T10:28:05;2.03;;;1.92;;
31746;SDS011;18319;48.974;8.462;2022-08-01T10:30:38;2.53;;;2.35;;
31746;SDS011;18319;48.974;8.462;2022-08-01T10:33:07;2.40;;;1.92;;
31746;SDS011;18319;48.974;8.462;2022-08-01T10:35:36;2.17;;;1.73;;
31746;SDS011;18319;48.974;8.462;2022-08-01T10:38:05;2.25;;;1.83;;
31746;SDS011;18319;48.974;8.462;2022-08-01T10:40:33;2.45;;;1.95;;
31746;SDS011;18319;48.974;8.462;2022-08-01T10:43:01;2.35;;;1.95;;
31746;SDS011;18319;48.974;8.462;2022-08-01T10:45:28;2.20;;;2.10;;
31746;SDS011;18319;48.974;8.462;2022-08-01T10:47:58;4.10;;;3.15;;
31746;SDS011;18319;48.974;8.462;2022-08-01T10:50:31;4.00;;;3.55;;
31746;SDS011;18319;48.974;8.462;2022-08-01T10:53:03;3.40;;;3.13;;
31746;SDS011;18319;48.974;8.462;2022-08-01T10:55:45;2.72;;;2.58;;
31746;SDS011;18319;48.974;8.462;2022-08-01T10:58:22;2.63;;;2.40;;
31746;SDS011;18319;48.974;8.462;2022-08-01T11:03:56;2.35;;;2.25;;
31746;SDS011;18319;48.974;8.462;2022-08-01T11:06:25;2.10;;;2.00;;
31746;SDS011;18319;48.974;8.462;2022-08-01T11:09:03;2.03;;;1.80;;
31746;SDS011;18319;48.974;8.462;2022-08-01T11:11:31;1.98;;;1.88;;
31746;SDS011;18319;48.974;8.462;2022-08-01T11:14:18;1.75;;;1.65;;
31746;SDS011;18319;48.974;8.462;2022-08-01T11:16:45;2.00;;;1.58;;
31746;SDS011;18319;48.974;8.462;2022-08-01T11:19:12;9.20;;;2.20;;
31746;SDS011;18319;48.974;8.462;2022-08-01T11:21:57;1.83;;;1.73;;
31746;SDS011;18319;48.974;8.462;2022-08-01T11:27:23;2.50;;;2.35;;
31746;SDS011;18319;48.974;8.462;2022-08-01T11:32:51;2.75;;;2.55;;
31746;SDS011;18319;48.974;8.462;2022-08-01T11:35:20;2.72;;;2.58;;
31746;SDS011;18319;48.974;8.462;2022-08-01T11:37:48;3.28;;;3.00;;
31746;SDS011;18319;48.974;8.462;2022-08-01T11:40:19;2.13;;;2.03;;
31746;SDS011;18319;48.974;8.462;2022-08-01T11:42:47;2.47;;;2.38;;
31746;SDS011;18319;48.974;8.462;2022-08-01T11:45:15;3.25;;;1.90;;
31746;SDS011;18319;48.974;8.462;2022-08-01T11:47:42;1.60;;;1.50;;
31746;SDS011;18319;48.974;8.462;2022-08-01T11:52:59;1.60;;;1.50;;
31746;SDS011;18319;48.974;8.462;2022-08-01T11:55:28;2.75;;;1.45;;
31746;SDS011;18319;48.974;8.462;2022-08-01T11:57:59;1.52;;;1.27;;
31746;SDS011;18319;48.974;8.462;2022-08-01T12:00:27;3.20;;;1.45;;
31746;SDS011;18319;48.974;8.462;2022-08-01T12:02:59;1.38;;;1.27;;
31746;SDS011;18319;48.974;8.462;2022-08-01T12:05:27;1.35;;;1.35;;
31746;SDS011;18319;48.974;8.462;2022-08-01T12:07:56;1.30;;;1.20;;
31746;SDS011;18319;48.974;8.462;2022-08-01T12:10:24;1.63;;;1.52;;
31746;SDS011;18319;48.974;8.462;2022-08-01T12:13:00;1.35;;;1.35;;
31746;SDS011;18319;48.974;8.462;2022-08-01T12:15:30;1.98;;;1.70;;
31746;SDS011;18319;48.974;8.462;2022-08-01T12:17:58;1.92;;;1.58;;
31746;SDS011;18319;48.974;8.462;2022-08-01T12:20:27;1.67;;;1.10;;
31746;SDS011;18319;48.974;8.462;2022-08-01T12:22:55;2.03;;;1.80;;
31746;SDS011;18319;48.974;8.462;2022-08-01T12:25:22;1.80;;;1.70;;
31746;SDS011;18319;48.974;8.462;2022-08-01T12:27:51;2.10;;;1.52;;
31746;SDS011;18319;48.974;8.462;2022-08-01T12:30:20;2.35;;;0.98;;
31746;SDS011;18319;48.974;8.462;2022-08-01T12:32:48;1.50;;;1.40;;
31746;SDS011;18319;48.974;8.462;2022-08-01T12:35:17;0.77;;;0.77;;
31746;SDS011;18319;48.974;8.462;2022-08-01T12:37:48;1.25;;;1.15;;
31746;SDS011;18319;48.974;8.462;2022-08-01T12:40:16;1.90;;;1.80;;
31746;SDS011;18319;48.974;8.462;2022-08-01T12:42:45;1.88;;;1.25;;
31746;SDS011;18319;48.974;8.462;2022-08-01T12:45:14;1.60;;;1.17;;
31746;SDS011;18319;48.974;8.462;2022-08-01T12:47:45;1.63;;;1.20;;
31746;SDS011;18319;48.974;8.462;2022-08-01T12:50:12;1.67;;;0.95;;
31746;SDS011;18319;48.974;8.462;2022-08-01T12:52:42;1.20;;;1.10;;
31746;SDS011;18319;48.974;8.462;2022-08-01T12:55:10;1.10;;;1.10;;
31746;SDS011;18319;48.974;8.462;2022-08-01T12:57:43;0.85;;;0.85;;
31746;SDS011;18319;48.974;8.462;2022-08-01T13:00:18;2.22;;;1.00;;
31746;SDS011;18319;48.974;8.462;2022-08-01T13:02:51;0.80;;;0.80;;
31746;SDS011;18319;48.974;8.462;2022-08-01T13:05:27;1.30;;;1.05;;
31746;SDS011;18319;48.974;8.462;2022-08-01T13:07:54;1.08;;;0.93;;
31746;SDS011;18319;48.974;8.462;2022-08-01T13:10:25;1.83;;;1.00;;
31746;SDS011;18319;48.974;8.462;2022-08-01T13:12:53;1.38;;;1.15;;
31746;SDS011;18319;48.974;8.462;2022-08-01T13:15:22;2.92;;;1.08;;
31746;SDS011;18319;48.974;8.462;2022-08-01T13:17:57;1.85;;;1.00;;
31746;SDS011;18319;48.974;8.462;2022-08-01T13:20:26;1.52;;;1.30;;
31746;SDS011;18319;48.974;8.462;2022-08-01T13:22:55;1.27;;;1.17;;
31746;SDS011;18319;48.974;8.462;2022-08-01T13:25:45;1.00;;;1.00;;
31746;SDS011;18319;48.974;8.462;2022-08-01T13:28:13;1.45;;;0.90;;
31746;SDS011;18319;48.974;8.462;2022-08-01T13:30:50;0.88;;;0.85;;
31746;SDS011;18319;48.974;8.462;2022-08-01T13:33:19;1.75;;;0.80;;
31746;SDS011;18319;48.974;8.462;2022-08-01T13:35:45;2.33;;;0.93;;
31746;SDS011;18319;48.974;8.462;2022-08-01T13:38:13;1.25;;;0.70;;
31746;SDS011;18319;48.974;8.462;2022-08-01T13:40:40;0.90;;;0.90;;
31746;SDS011;18319;48.974;8.462;2022-08-01T13:43:06;1.98;;;0.77;;
31746;SDS011;18319;48.974;8.462;2022-08-01T13:45:33;0.70;;;0.70;;
31746;SDS011;18319;48.974;8.462;2022-08-01T13:48:00;0.93;;;0.73;;
31746;SDS011;18319;48.974;8.462;2022-08-01T13:50:28;0.98;;;0.70;;
31746;SDS011;18319;48.974;8.462;2022-08-01T13:52:55;1.90;;;0.68;;
31746;SDS011;18319;48.974;8.462;2022-08-01T13:55:22;0.75;;;0.75;;
31746;SDS011;18319;48.974;8.462;2022-08-01T13:57:49;0.80;;;0.80;;
31746;SDS011;18319;48.974;8.462;2022-08-01T14:00:16;0.85;;;0.60;;
31746;SDS011;18319;48.974;8.462;2022-08-01T14:02:43;2.15;;;0.70;;
31746;SDS011;18319;48.974;8.462;2022-08-01T14:05:12;0.85;;;0.80;;
31746;SDS011;18319;48.974;8.462;2022-08-01T14:07:40;1.20;;;0.63;;
31746;SDS011;18319;48.974;8.462;2022-08-01T14:10:07;1.10;;;0.73;;
31746;SDS011;18319;48.974;8.462;2022-08-01T14:12:51;0.80;;;0.60;;
31746;SDS011;18319;48.974;8.462;2022-08-01T14:15:18;0.60;;;0.60;;
31746;SDS011;18319;48.974;8.462;2022-08-01T14:17:45;0.45;;;0.43;;
31746;SDS011;18319;48.974;8.462;2022-08-01T14:20:11;0.70;;;0.70;;
31746;SDS011;18319;48.974;8.462;2022-08-01T14:22:38;2.25;;;0.40;;
31746;SDS011;18319;48.974;8.462;2022-08-01T14:25:07;1.55;;;0.45;;
31746;SDS011;18319;48.974;8.462;2022-08-01T14:27:34;1.60;;;0.50;;
31746;SDS011;18319;48.974;8.462;2022-08-01T14:30:01;0.52;;;0.52;;
31746;SDS011;18319;48.974;8.462;2022-08-01T14:32:29;0.65;;;0.65;;
31746;SDS011;18319;48.974;8.462;2022-08-01T14:34:58;0.90;;;0.47;;
31746;SDS011;18319;48.974;8.462;2022-08-01T14:37:25;0.75;;;0.57;;
31746;SDS011;18319;48.974;8.462;2022-08-01T14:39:51;0.47;;;0.47;;
31746;SDS011;18319;48.974;8.462;2022-08-01T14:42:19;0.30;;;0.30;;
31746;SDS011;18319;48.974;8.462;2022-08-01T14:44:46;1.75;;;0.75;;
31746;SDS011;18319;48.974;8.462;2022-08-01T14:47:14;0.60;;;0.40;;
31746;SDS011;18319;48.974;8.462;2022-08-01T14:49:41;1.55;;;0.73;;
31746;SDS011;18319;48.974;8.462;2022-08-01T14:52:08;12.77;;;0.80;;
31746;SDS011;18319;48.974;8.462;2022-08-01T14:54:35;0.57;;;0.57;;
31746;SDS011;18319;48.974;8.462;2022-08-01T14:57:01;0.40;;;0.40;;
31746;SDS011;18319;48.974;8.462;2022-08-01T14:59:30;0.75;;;0.73;;
31746;SDS011;18319;48.974;8.462;2022-08-01T15:01:56;0.60;;;0.60;;
31746;SDS011;18319;48.974;8.462;2022-08-01T15:04:23;0.70;;;0.70;;
31746;SDS011;18319;48.974;8.462;2022-08-01T15:06:50;1.50;;;0.75;;
31746;SDS011;18319;48.974;8.462;2022-08-01T15:09:17;0.60;;;0.55;;
31746;SDS011;18319;48.974;8.462;2022-08-01T15:11:44;1.05;;;0.60;;